Wetterdaten: Woche 28.11.11 - 04.12.11 (KW48)
Datum Zeit Temp. Innen Temp. Aussen UV X Diff Temp. Feuchte Inne Feuchte Auss Sonnenschein Luftdruck Regen ab 0,1 Wind Sonnenschein T Regendauer Windben
28.11.2011 00:00 15,1 C 5,6 C 0,0 UV-I 0,0 C 54 % 87 % 0 % 1025,9 hPa 0,0 l/m 0,5 km/h (0 Bft) 0,00 h 0,00 h 1,3 km/h (1 Bft)
28.11.2011 01:00 15,1 C 4,9 C 0,0 UV-I 0,0 C 54 % 88 % 0 % 1026,1 hPa 0,0 l/m 0,1 km/h (0 Bft) 0,00 h 0,00 h 0,4 km/h (0 Bft)
28.11.2011 02:00 15,0 C 4,0 C 0,0 UV-I 0,0 C 54 % 90 % 0 % 1026,1 hPa 0,0 l/m 0,0 km/h (0 Bft) 0,00 h 0,00 h 0,0 km/h (0 Bft)
28.11.2011 03:00 14,9 C 3,2 C 0,0 UV-I 0,0 C 54 % 91 % 0 % 1026,5 hPa 0,0 l/m 0,0 km/h (0 Bft) 0,00 h 0,00 h 0,0 km/h (0 Bft)
28.11.2011 04:00 14,8 C 2,6 C 0,0 UV-I 0,0 C 53 % 92 % 0 % 1026,8 hPa 0,0 l/m 0,0 km/h (0 Bft) 0,00 h 0,00 h 0,0 km/h (0 Bft)
28.11.2011 05:00 14,7 C 2,8 C 0,0 UV-I 0,0 C 53 % 93 % 0 % 1026,9 hPa 0,0 l/m 0,0 km/h (0 Bft) 0,00 h 0,00 h 0,0 km/h (0 Bft)
28.11.2011 06:00 14,7 C 2,2 C 0,0 UV-I 0,0 C 53 % 93 % 0 % 1027,0 hPa 0,0 l/m 0,0 km/h (0 Bft) 0,00 h 0,00 h 0,0 km/h (0 Bft)
28.11.2011 07:00 14,5 C 1,9 C 0,0 UV-I 0,0 C 52 % 93 % 0 % 1027,0 hPa 0,0 l/m 0,3 km/h (0 Bft) 0,00 h 0,00 h 0,7 km/h (0 Bft)
28.11.2011 08:00 14,4 C 1,6 C 0,0 UV-I 0,0 C 52 % 94 % 0 % 1026,8 hPa 0,0 l/m 0,5 km/h (0 Bft) 0,00 h 0,00 h 0,8 km/h (0 Bft)
28.11.2011 09:00 14,5 C 1,8 C 0,0 UV-I 0,9 C 52 % 94 % 26 % 1027,0 hPa 0,0 l/m 2,6 km/h (1 Bft) 0,33 h 0,00 h 2,9 km/h (1 Bft)
28.11.2011 10:00 14,6 C 2,9 C 0,0 UV-I 4,8 C 52 % 95 % 100 % 1027,4 hPa 0,0 l/m 2,6 km/h (1 Bft) 0,97 h 0,00 h 3,8 km/h (1 Bft)
28.11.2011 11:00 14,8 C 5,3 C 0,2 UV-I 5,5 C 52 % 94 % 100 % 1027,4 hPa 0,0 l/m 2,7 km/h (1 Bft) 0,97 h 0,00 h 3,4 km/h (1 Bft)
28.11.2011 12:00 15,0 C 7,5 C 0,4 UV-I 5,9 C 52 % 90 % 100 % 1026,8 hPa 0,0 l/m 3,3 km/h (1 Bft) 0,97 h 0,10 h 4,5 km/h (1 Bft)
28.11.2011 13:00 15,6 C 8,9 C 0,3 UV-I 5,0 C 52 % 86 % 100 % 1026,1 hPa 0,0 l/m 4,4 km/h (1 Bft) 0,97 h 0,00 h 5,1 km/h (1 Bft)
28.11.2011 14:00 17,2 C 9,5 C 0,3 UV-I 4,3 C 50 % 81 % 100 % 1026,0 hPa 0,0 l/m 3,7 km/h (1 Bft) 0,97 h 0,00 h 4,3 km/h (1 Bft)
28.11.2011 15:00 17,2 C 8,4 C 0,0 UV-I 0,3 C 48 % 81 % 8 % 1024,9 hPa 0,0 l/m 4,5 km/h (1 Bft) 0,07 h 0,00 h 5,5 km/h (1 Bft)
28.11.2011 16:00 16,4 C 7,2 C 0,0 UV-I 0,0 C 49 % 82 % 0 % 1023,9 hPa 0,0 l/m 1,9 km/h (1 Bft) 0,00 h 0,00 h 1,6 km/h (1 Bft)
28.11.2011 17:00 15,7 C 5,7 C 0,0 UV-I 0,0 C 50 % 85 % 0 % 1023,3 hPa 0,0 l/m 0,4 km/h (0 Bft) 0,00 h 0,00 h 0,6 km/h (0 Bft)
28.11.2011 18:00 15,2 C 4,9 C 0,0 UV-I 0,0 C 51 % 87 % 0 % 1022,7 hPa 0,0 l/m 1,5 km/h (1 Bft) 0,00 h 0,00 h 2,3 km/h (1 Bft)
28.11.2011 19:00 15,0 C 4,4 C 0,0 UV-I 0,0 C 52 % 89 % 0 % 1022,6 hPa 0,0 l/m 2,4 km/h (1 Bft) 0,00 h 0,00 h 3,6 km/h (1 Bft)
28.11.2011 20:00 14,9 C 4,0 C 0,0 UV-I 0,0 C 51 % 90 % 0 % 1022,2 hPa 0,0 l/m 3,7 km/h (1 Bft) 0,00 h 0,00 h 4,7 km/h (1 Bft)
28.11.2011 21:00 14,8 C 3,5 C 0,0 UV-I 0,0 C 51 % 90 % 0 % 1021,7 hPa 0,0 l/m 5,3 km/h (1 Bft) 0,00 h 0,00 h 5,8 km/h (2 Bft)
28.11.2011 22:00 14,7 C 3,1 C 0,0 UV-I 0,0 C 51 % 91 % 0 % 1021,3 hPa 0,0 l/m 4,8 km/h (1 Bft) 0,00 h 0,00 h 5,1 km/h (1 Bft)
28.11.2011 23:00 14,6 C 2,6 C 0,0 UV-I 0,0 C 51 % 91 % 0 % 1021,1 hPa 0,0 l/m 4,8 km/h (1 Bft) 0,00 h 0,00 h 5,1 km/h (1 Bft)
29.11.2011 00:00 14,5 C 1,6 C 0,0 UV-I 0,0 C 51 % 91 % 0 % 1020,8 hPa 0,0 l/m 0,0 km/h (0 Bft) 0,00 h 0,00 h 0,0 km/h (0 Bft)
29.11.2011 01:00 14,4 C 0,6 C 0,0 UV-I 0,0 C 50 % 92 % 0 % 1020,3 hPa 0,0 l/m 0,0 km/h (0 Bft) 0,00 h 0,00 h 0,0 km/h (0 Bft)
29.11.2011 02:00 14,4 C -0,0 C 0,0 UV-I 0,0 C 50 % 93 % 0 % 1019,8 hPa 0,0 l/m 0,1 km/h (0 Bft) 0,00 h 0,00 h 0,6 km/h (0 Bft)
29.11.2011 03:00 14,3 C 0,4 C 0,0 UV-I 0,0 C 50 % 94 % 0 % 1019,2 hPa 0,0 l/m 2,1 km/h (1 Bft) 0,00 h 0,00 h 3,3 km/h (1 Bft)
29.11.2011 04:00 14,2 C 0,6 C 0,0 UV-I 0,0 C 50 % 94 % 0 % 1018,5 hPa 0,0 l/m 2,8 km/h (1 Bft) 0,00 h 0,00 h 3,8 km/h (1 Bft)
29.11.2011 05:00 14,3 C 1,4 C 0,0 UV-I 0,0 C 50 % 95 % 0 % 1017,9 hPa 0,0 l/m 5,9 km/h (2 Bft) 0,00 h 0,00 h 7,3 km/h (2 Bft)
29.11.2011 06:00 14,3 C 2,0 C 0,0 UV-I 0,0 C 50 % 95 % 0 % 1017,5 hPa 0,1 l/m 5,5 km/h (1 Bft) 0,00 h 0,00 h 5,7 km/h (1 Bft)
29.11.2011 07:00 14,1 C 2,8 C 0,0 UV-I 0,0 C 50 % 95 % 0 % 1017,3 hPa 0,0 l/m 7,6 km/h (2 Bft) 0,00 h 0,00 h 8,7 km/h (2 Bft)
29.11.2011 08:00 14,2 C 3,4 C 0,0 UV-I 0,0 C 50 % 95 % 0 % 1016,8 hPa 0,0 l/m 8,6 km/h (2 Bft) 0,00 h 0,13 h 10,0 km/h (2 Bft)
29.11.2011 09:00 14,3 C 4,0 C 0,0 UV-I 0,0 C 51 % 95 % 0 % 1016,8 hPa 0,0 l/m 8,4 km/h (2 Bft) 0,00 h 0,00 h 9,8 km/h (2 Bft)
29.11.2011 10:00 14,4 C 4,8 C 0,0 UV-I 0,3 C 51 % 94 % 8 % 1016,5 hPa 0,0 l/m 8,9 km/h (2 Bft) 0,00 h 0,00 h 9,6 km/h (2 Bft)
29.11.2011 11:00 14,7 C 6,8 C 0,4 UV-I 3,7 C 51 % 92 % 88 % 1015,9 hPa 0,0 l/m 7,2 km/h (2 Bft) 0,80 h 0,00 h 8,1 km/h (2 Bft)
29.11.2011 12:00 14,9 C 8,8 C 0,6 UV-I 4,9 C 51 % 86 % 100 % 1014,9 hPa 0,0 l/m 7,2 km/h (2 Bft) 0,97 h 0,00 h 8,7 km/h (2 Bft)
29.11.2011 13:00 15,4 C 9,9 C 0,5 UV-I 4,7 C 51 % 80 % 100 % 1014,2 hPa 0,0 l/m 6,0 km/h (2 Bft) 0,97 h 0,00 h 6,3 km/h (2 Bft)
29.11.2011 14:00 16,7 C 10,1 C 0,2 UV-I 3,4 C 48 % 75 % 95 % 1014,0 hPa 0,0 l/m 8,4 km/h (2 Bft) 0,97 h 0,00 h 9,0 km/h (2 Bft)
29.11.2011 15:00 16,6 C 9,2 C 0,0 UV-I 0,1 C 46 % 75 % 4 % 1013,3 hPa 0,0 l/m 9,4 km/h (2 Bft) 0,03 h 0,00 h 10,9 km/h (2 Bft)
29.11.2011 16:00 15,9 C 7,8 C 0,0 UV-I 0,0 C 47 % 78 % 0 % 1012,3 hPa 0,0 l/m 6,9 km/h (2 Bft) 0,00 h 0,00 h 7,8 km/h (2 Bft)
29.11.2011 17:00 15,3 C 7,0 C 0,0 UV-I 0,0 C 49 % 82 % 0 % 1012,2 hPa 0,0 l/m 6,1 km/h (2 Bft) 0,00 h 0,00 h 6,7 km/h (2 Bft)
29.11.2011 18:00 15,1 C 7,0 C 0,0 UV-I 0,0 C 50 % 84 % 0 % 1012,2 hPa 0,0 l/m 4,2 km/h (1 Bft) 0,00 h 0,00 h 5,5 km/h (1 Bft)
29.11.2011 19:00 15,0 C 8,0 C 0,0 UV-I 0,0 C 51 % 85 % 0 % 1012,0 hPa 0,0 l/m 6,5 km/h (2 Bft) 0,00 h 0,00 h 6,9 km/h (2 Bft)
29.11.2011 20:00 15,0 C 9,0 C 0,0 UV-I 0,0 C 52 % 84 % 0 % 1012,1 hPa 0,0 l/m 6,3 km/h (2 Bft) 0,00 h 0,00 h 7,6 km/h (2 Bft)
29.11.2011 21:00 15,1 C 10,0 C 0,0 UV-I 0,0 C 53 % 82 % 0 % 1012,5 hPa 0,0 l/m 5,7 km/h (1 Bft) 0,00 h 0,00 h 8,2 km/h (2 Bft)
29.11.2011 22:00 15,2 C 10,8 C 0,0 UV-I 0,0 C 53 % 80 % 0 % 1012,8 hPa 0,0 l/m 8,7 km/h (2 Bft) 0,00 h 0,17 h 9,4 km/h (2 Bft)
29.11.2011 23:00 15,2 C 10,1 C 0,0 UV-I 0,0 C 56 % 88 % 0 % 1013,6 hPa 0,2 l/m 8,2 km/h (2 Bft) 0,00 h 0,63 h 9,4 km/h (2 Bft)
30.11.2011 00:00 15,3 C 10,1 C 0,0 UV-I 0,0 C 58 % 91 % 0 % 1014,5 hPa 0,0 l/m 10,2 km/h (2 Bft) 0,00 h 0,73 h 12,3 km/h (3 Bft)
30.11.2011 01:00 15,4 C 10,4 C 0,0 UV-I 0,0 C 59 % 91 % 0 % 1015,7 hPa 0,0 l/m 10,3 km/h (2 Bft) 0,00 h 0,00 h 12,1 km/h (2 Bft)
30.11.2011 02:00 15,4 C 10,0 C 0,0 UV-I 0,0 C 59 % 90 % 0 % 1016,8 hPa 0,0 l/m 5,4 km/h (1 Bft) 0,00 h 0,00 h 5,0 km/h (1 Bft)
30.11.2011 03:00 15,4 C 9,4 C 0,0 UV-I 0,0 C 59 % 91 % 0 % 1018,3 hPa 0,0 l/m 3,6 km/h (1 Bft) 0,00 h 0,03 h 4,7 km/h (1 Bft)
30.11.2011 04:00 15,2 C 8,4 C 0,0 UV-I 0,0 C 57 % 87 % 0 % 1019,7 hPa 0,0 l/m 3,1 km/h (1 Bft) 0,00 h 0,00 h 3,7 km/h (1 Bft)
30.11.2011 05:00 15,1 C 6,9 C 0,0 UV-I 0,0 C 56 % 87 % 0 % 1020,5 hPa 0,0 l/m 0,3 km/h (0 Bft) 0,00 h 0,00 h 0,4 km/h (0 Bft)
30.11.2011 06:00 15,1 C 6,4 C 0,0 UV-I 0,0 C 55 % 89 % 0 % 1021,6 hPa 0,0 l/m 1,6 km/h (1 Bft) 0,00 h 0,00 h 2,1 km/h (1 Bft)
30.11.2011 07:00 15,0 C 6,2 C 0,0 UV-I 0,0 C 55 % 90 % 0 % 1022,4 hPa 0,0 l/m 1,9 km/h (1 Bft) 0,00 h 0,03 h 2,6 km/h (1 Bft)
30.11.2011 08:00 14,9 C 5,9 C 0,0 UV-I 0,0 C 54 % 90 % 0 % 1023,3 hPa 0,0 l/m 2,2 km/h (1 Bft) 0,00 h 0,00 h 3,4 km/h (1 Bft)
30.11.2011 09:00 14,8 C 6,0 C 0,0 UV-I 0,8 C 53 % 90 % 24 % 1024,1 hPa 0,0 l/m 2,7 km/h (1 Bft) 0,33 h 0,00 h 2,5 km/h (1 Bft)
30.11.2011 10:00 14,8 C 7,3 C 0,0 UV-I 4,2 C 53 % 87 % 96 % 1024,8 hPa 0,0 l/m 2,7 km/h (1 Bft) 0,93 h 0,00 h 3,4 km/h (1 Bft)
30.11.2011 11:00 15,1 C 9,4 C 0,4 UV-I 4,5 C 52 % 81 % 100 % 1025,0 hPa 0,0 l/m 6,7 km/h (2 Bft) 0,97 h 0,00 h 7,6 km/h (2 Bft)
30.11.2011 12:00 15,3 C 10,0 C 0,4 UV-I 1,7 C 51 % 76 % 45 % 1025,2 hPa 0,0 l/m 6,1 km/h (2 Bft) 0,23 h 0,00 h 7,3 km/h (2 Bft)
30.11.2011 13:00 15,9 C 11,0 C 0,4 UV-I 3,9 C 51 % 74 % 97 % 1025,3 hPa 0,0 l/m 6,3 km/h (2 Bft) 0,90 h 0,00 h 7,3 km/h (2 Bft)
30.11.2011 14:00 17,3 C 11,3 C 0,1 UV-I 3,0 C 48 % 70 % 86 % 1025,7 hPa 0,0 l/m 7,1 km/h (2 Bft) 0,97 h 0,00 h 7,2 km/h (2 Bft)
30.11.2011 15:00 17,3 C 10,6 C 0,0 UV-I 0,1 C 47 % 72 % 3 % 1025,4 hPa 0,0 l/m 3,1 km/h (1 Bft) 0,03 h 0,00 h 3,8 km/h (1 Bft)
30.11.2011 16:00 16,6 C 9,6 C 0,0 UV-I 0,0 C 48 % 74 % 0 % 1025,1 hPa 0,0 l/m 0,6 km/h (0 Bft) 0,00 h 0,00 h 0,3 km/h (0 Bft)
30.11.2011 17:00 16,0 C 8,0 C 0,0 UV-I 0,0 C 50 % 78 % 0 % 1025,0 hPa 0,0 l/m 0,2 km/h (0 Bft) 0,00 h 0,00 h 0,3 km/h (0 Bft)
30.11.2011 18:00 15,6 C 6,8 C 0,0 UV-I 0,0 C 51 % 81 % 0 % 1024,8 hPa 0,0 l/m 0,3 km/h (0 Bft) 0,00 h 0,00 h 0,8 km/h (0 Bft)
30.11.2011 19:00 15,4 C 6,1 C 0,0 UV-I 0,0 C 51 % 83 % 0 % 1024,5 hPa 0,0 l/m 1,5 km/h (1 Bft) 0,00 h 0,00 h 1,8 km/h (1 Bft)
30.11.2011 20:00 15,2 C 5,6 C 0,0 UV-I 0,0 C 51 % 84 % 0 % 1024,0 hPa 0,0 l/m 1,6 km/h (1 Bft) 0,00 h 0,00 h 2,3 km/h (1 Bft)
30.11.2011 21:00 15,2 C 4,8 C 0,0 UV-I 0,0 C 51 % 86 % 0 % 1023,4 hPa 0,0 l/m 2,9 km/h (1 Bft) 0,00 h 0,00 h 3,3 km/h (1 Bft)
30.11.2011 22:00 15,0 C 4,2 C 0,0 UV-I 0,0 C 51 % 88 % 0 % 1022,5 hPa 0,0 l/m 4,3 km/h (1 Bft) 0,00 h 0,00 h 5,5 km/h (1 Bft)
30.11.2011 23:00 15,0 C 3,7 C 0,0 UV-I 0,0 C 51 % 90 % 0 % 1021,7 hPa 0,0 l/m 5,3 km/h (1 Bft) 0,00 h 0,00 h 6,4 km/h (2 Bft)
01.12.2011 00:00 14,8 C 3,9 C 0,0 UV-I 0,0 C 51 % 91 % 0 % 1020,4 hPa 0,0 l/m 9,0 km/h (2 Bft) 0,00 h 0,00 h 9,9 km/h (2 Bft)
01.12.2011 01:00 14,8 C 4,0 C 0,0 UV-I 0,0 C 51 % 91 % 0 % 1019,4 hPa 0,0 l/m 8,2 km/h (2 Bft) 0,00 h 0,00 h 9,0 km/h (2 Bft)
01.12.2011 02:00 14,7 C 4,4 C 0,0 UV-I 0,0 C 51 % 91 % 0 % 1018,4 hPa 0,0 l/m 10,6 km/h (2 Bft) 0,00 h 0,00 h 14,0 km/h (3 Bft)
01.12.2011 03:00 14,7 C 4,4 C 0,0 UV-I 0,0 C 51 % 90 % 0 % 1017,0 hPa 0,0 l/m 9,9 km/h (2 Bft) 0,00 h 0,00 h 11,0 km/h (2 Bft)
01.12.2011 04:00 14,6 C 4,7 C 0,0 UV-I 0,0 C 51 % 90 % 0 % 1015,5 hPa 0,0 l/m 12,8 km/h (3 Bft) 0,00 h 0,00 h 14,7 km/h (3 Bft)
01.12.2011 05:00 14,6 C 4,9 C 0,0 UV-I 0,0 C 51 % 90 % 0 % 1014,3 hPa 0,0 l/m 12,3 km/h (3 Bft) 0,00 h 0,00 h 12,9 km/h (3 Bft)
01.12.2011 06:00 14,6 C 5,5 C 0,0 UV-I 0,0 C 52 % 91 % 0 % 1013,0 hPa 0,0 l/m 12,5 km/h (3 Bft) 0,00 h 0,00 h 12,8 km/h (3 Bft)
01.12.2011 07:00 14,7 C 6,4 C 0,0 UV-I 0,0 C 52 % 91 % 0 % 1012,5 hPa 0,6 l/m 8,3 km/h (2 Bft) 0,00 h 0,67 h 8,0 km/h (2 Bft)
01.12.2011 08:00 14,8 C 8,0 C 0,0 UV-I 0,0 C 54 % 93 % 0 % 1011,8 hPa 0,2 l/m 6,0 km/h (2 Bft) 0,00 h 0,80 h 7,0 km/h (2 Bft)
01.12.2011 09:00 15,1 C 9,7 C 0,0 UV-I 0,0 C 57 % 90 % 0 % 1012,1 hPa 0,0 l/m 4,4 km/h (1 Bft) 0,00 h 0,00 h 4,9 km/h (1 Bft)
01.12.2011 10:00 15,2 C 10,9 C 0,0 UV-I 0,0 C 59 % 89 % 0 % 1012,1 hPa 0,0 l/m 6,9 km/h (2 Bft) 0,00 h 0,30 h 7,8 km/h (2 Bft)
01.12.2011 11:00 15,3 C 11,3 C 0,0 UV-I 0,0 C 60 % 89 % 0 % 1012,3 hPa 0,0 l/m 5,8 km/h (2 Bft) 0,00 h 0,07 h 6,3 km/h (2 Bft)
01.12.2011 12:00 15,5 C 12,1 C 0,0 UV-I 0,2 C 60 % 87 % 5 % 1011,3 hPa 0,0 l/m 8,2 km/h (2 Bft) 0,00 h 0,00 h 8,9 km/h (2 Bft)
01.12.2011 13:00 15,6 C 12,6 C 0,0 UV-I 0,0 C 60 % 83 % 1 % 1010,3 hPa 0,0 l/m 8,8 km/h (2 Bft) 0,00 h 0,00 h 8,8 km/h (2 Bft)
01.12.2011 14:00 15,8 C 12,8 C 0,0 UV-I 0,0 C 61 % 82 % 0 % 1009,9 hPa 0,0 l/m 9,9 km/h (2 Bft) 0,00 h 0,00 h 10,6 km/h (2 Bft)
01.12.2011 15:00 15,9 C 12,8 C 0,0 UV-I 0,0 C 61 % 81 % 0 % 1009,6 hPa 0,0 l/m 11,1 km/h (2 Bft) 0,00 h 0,00 h 13,3 km/h (3 Bft)
01.12.2011 16:00 16,0 C 12,8 C 0,0 UV-I 0,0 C 61 % 81 % 0 % 1009,6 hPa 0,0 l/m 8,7 km/h (2 Bft) 0,00 h 0,00 h 10,4 km/h (2 Bft)
01.12.2011 17:00 16,0 C 12,7 C 0,0 UV-I 0,0 C 61 % 81 % 0 % 1009,2 hPa 0,0 l/m 6,4 km/h (2 Bft) 0,00 h 0,07 h 7,0 km/h (2 Bft)
01.12.2011 18:00 16,0 C 12,7 C 0,0 UV-I 0,0 C 61 % 79 % 0 % 1009,0 hPa 0,0 l/m 7,1 km/h (2 Bft) 0,00 h 0,07 h 7,5 km/h (2 Bft)
01.12.2011 19:00 16,0 C 12,2 C 0,0 UV-I 0,0 C 60 % 82 % 0 % 1008,6 hPa 0,5 l/m 5,5 km/h (1 Bft) 0,00 h 0,83 h 7,6 km/h (2 Bft)
01.12.2011 20:00 16,1 C 11,1 C 0,0 UV-I 0,0 C 61 % 87 % 0 % 1008,3 hPa 1,1 l/m 5,4 km/h (1 Bft) 0,00 h 0,87 h 6,2 km/h (2 Bft)
01.12.2011 21:00 16,1 C 10,5 C 0,0 UV-I 0,0 C 62 % 90 % 0 % 1007,0 hPa 1,9 l/m 5,0 km/h (1 Bft) 0,00 h 0,73 h 5,4 km/h (1 Bft)
01.12.2011 22:00 16,1 C 10,6 C 0,0 UV-I 0,0 C 62 % 91 % 0 % 1006,0 hPa 0,5 l/m 4,4 km/h (1 Bft) 0,00 h 0,70 h 5,4 km/h (1 Bft)
01.12.2011 23:00 16,2 C 11,6 C 0,0 UV-I 0,0 C 63 % 91 % 0 % 1005,0 hPa 0,1 l/m 6,2 km/h (2 Bft) 0,00 h 0,13 h 7,1 km/h (2 Bft)
02.12.2011 00:00 16,3 C 12,4 C 0,0 UV-I 0,0 C 63 % 88 % 0 % 1004,6 hPa 0,2 l/m 8,8 km/h (2 Bft) 0,00 h 0,57 h 10,6 km/h (2 Bft)
02.12.2011 01:00 16,3 C 12,3 C 0,0 UV-I 0,0 C 63 % 88 % 0 % 1003,7 hPa 0,0 l/m 7,3 km/h (2 Bft) 0,00 h 0,00 h 8,7 km/h (2 Bft)
02.12.2011 02:00 16,3 C 12,2 C 0,0 UV-I 0,0 C 62 % 85 % 0 % 1002,8 hPa 0,0 l/m 7,1 km/h (2 Bft) 0,00 h 0,00 h 7,7 km/h (2 Bft)
02.12.2011 03:00 16,4 C 12,9 C 0,0 UV-I 0,0 C 60 % 74 % 0 % 1002,1 hPa 0,0 l/m 9,4 km/h (2 Bft) 0,00 h 0,00 h 10,5 km/h (2 Bft)
02.12.2011 04:00 16,6 C 13,2 C 0,0 UV-I 0,0 C 57 % 71 % 0 % 1002,2 hPa 0,0 l/m 11,7 km/h (2 Bft) 0,00 h 0,00 h 14,1 km/h (3 Bft)
02.12.2011 05:00 16,8 C 12,5 C 0,0 UV-I 0,0 C 57 % 76 % 0 % 1002,7 hPa 0,0 l/m 11,8 km/h (2 Bft) 0,00 h 0,10 h 13,0 km/h (3 Bft)
02.12.2011 06:00 16,8 C 11,7 C 0,0 UV-I 0,0 C 57 % 81 % 0 % 1003,2 hPa 0,2 l/m 10,0 km/h (2 Bft) 0,00 h 0,47 h 11,1 km/h (2 Bft)
02.12.2011 07:00 16,5 C 8,6 C 0,0 UV-I 0,0 C 58 % 85 % 0 % 1004,8 hPa 2,5 l/m 5,4 km/h (1 Bft) 0,00 h 1,00 h 5,1 km/h (1 Bft)
02.12.2011 08:00 16,2 C 7,2 C 0,0 UV-I 0,0 C 59 % 89 % 0 % 1006,4 hPa 1,2 l/m 7,3 km/h (2 Bft) 0,00 h 0,97 h 7,7 km/h (2 Bft)
02.12.2011 09:00 16,1 C 6,5 C 0,0 UV-I 0,0 C 58 % 90 % 0 % 1008,7 hPa 0,2 l/m 5,8 km/h (2 Bft) 0,00 h 0,30 h 6,4 km/h (2 Bft)
02.12.2011 10:00 16,1 C 6,6 C 0,0 UV-I 0,0 C 57 % 90 % 0 % 1010,1 hPa 0,0 l/m 3,7 km/h (1 Bft) 0,00 h 0,00 h 4,4 km/h (1 Bft)
02.12.2011 11:00 16,1 C 6,8 C 0,0 UV-I 0,0 C 56 % 90 % 0 % 1011,0 hPa 0,0 l/m 4,2 km/h (1 Bft) 0,00 h 0,00 h 4,1 km/h (1 Bft)
02.12.2011 12:00 16,1 C 7,1 C 0,1 UV-I 0,1 C 55 % 90 % 2 % 1011,7 hPa 0,0 l/m 3,9 km/h (1 Bft) 0,00 h 0,00 h 5,0 km/h (1 Bft)
02.12.2011 13:00 16,5 C 7,8 C 0,1 UV-I 1,1 C 55 % 88 % 32 % 1012,1 hPa 0,0 l/m 6,0 km/h (2 Bft) 0,40 h 0,00 h 6,5 km/h (2 Bft)
02.12.2011 14:00 17,5 C 8,4 C 0,1 UV-I 2,0 C 52 % 85 % 56 % 1012,9 hPa 0,0 l/m 6,2 km/h (2 Bft) 0,53 h 0,00 h 7,8 km/h (2 Bft)
02.12.2011 15:00 17,3 C 8,2 C 0,0 UV-I 0,1 C 51 % 85 % 4 % 1012,9 hPa 0,0 l/m 4,0 km/h (1 Bft) 0,00 h 0,00 h 4,3 km/h (1 Bft)
02.12.2011 16:00 16,6 C 7,8 C 0,0 UV-I 0,0 C 52 % 85 % 0 % 1013,1 hPa 0,0 l/m 2,0 km/h (1 Bft) 0,00 h 0,00 h 3,2 km/h (1 Bft)
02.12.2011 17:00 16,1 C 6,7 C 0,0 UV-I 0,0 C 53 % 84 % 0 % 1013,3 hPa 0,0 l/m 0,2 km/h (0 Bft) 0,00 h 0,00 h 0,8 km/h (0 Bft)
02.12.2011 18:00 15,9 C 6,0 C 0,0 UV-I 0,0 C 53 % 86 % 0 % 1013,5 hPa 0,0 l/m 0,4 km/h (0 Bft) 0,00 h 0,00 h 1,1 km/h (1 Bft)
02.12.2011 19:00 15,6 C 5,4 C 0,0 UV-I 0,0 C 53 % 87 % 0 % 1013,7 hPa 0,0 l/m 0,3 km/h (0 Bft) 0,00 h 0,00 h 2,0 km/h (1 Bft)
02.12.2011 20:00 15,6 C 5,1 C 0,0 UV-I 0,0 C 53 % 88 % 0 % 1013,9 hPa 0,0 l/m 0,6 km/h (0 Bft) 0,00 h 0,00 h 1,5 km/h (1 Bft)
02.12.2011 21:00 15,4 C 5,1 C 0,0 UV-I 0,0 C 53 % 88 % 0 % 1013,9 hPa 0,0 l/m 1,7 km/h (1 Bft) 0,00 h 0,00 h 4,2 km/h (1 Bft)
02.12.2011 22:00 15,3 C 4,8 C 0,0 UV-I 0,0 C 53 % 88 % 0 % 1013,6 hPa 0,0 l/m 1,5 km/h (1 Bft) 0,00 h 0,00 h 3,5 km/h (1 Bft)
02.12.2011 23:00 15,2 C 4,8 C 0,0 UV-I 0,0 C 52 % 87 % 0 % 1012,9 hPa 0,0 l/m 4,0 km/h (1 Bft) 0,00 h 0,00 h 6,3 km/h (2 Bft)
03.12.2011 00:00 15,1 C 5,2 C 0,0 UV-I 0,0 C 52 % 87 % 0 % 1012,3 hPa 0,0 l/m 5,7 km/h (1 Bft) 0,00 h 0,00 h 10,2 km/h (2 Bft)
03.12.2011 01:00 14,9 C 5,9 C 0,0 UV-I 0,0 C 51 % 86 % 0 % 1011,4 hPa 0,0 l/m 8,1 km/h (2 Bft) 0,00 h 0,00 h 9,6 km/h (2 Bft)
03.12.2011 02:00 14,8 C 6,4 C 0,0 UV-I 0,0 C 51 % 84 % 0 % 1010,3 hPa 0,0 l/m 9,0 km/h (2 Bft) 0,00 h 0,00 h 13,1 km/h (3 Bft)
03.12.2011 03:00 14,8 C 6,6 C 0,0 UV-I 0,0 C 51 % 82 % 0 % 1009,5 hPa 0,1 l/m 10,0 km/h (2 Bft) 0,00 h 0,00 h 15,0 km/h (3 Bft)
03.12.2011 04:00 14,7 C 6,8 C 0,0 UV-I 0,0 C 51 % 81 % 0 % 1008,3 hPa 0,0 l/m 9,8 km/h (2 Bft) 0,00 h 0,00 h 13,5 km/h (3 Bft)
03.12.2011 05:00 14,6 C 7,2 C 0,0 UV-I 0,0 C 51 % 79 % 0 % 1006,9 hPa 0,0 l/m 10,2 km/h (2 Bft) 0,00 h 0,00 h 11,6 km/h (2 Bft)
03.12.2011 06:00 14,6 C 7,5 C 0,0 UV-I 0,0 C 50 % 77 % 0 % 1005,6 hPa 0,0 l/m 11,8 km/h (2 Bft) 0,00 h 0,00 h 19,2 km/h (3 Bft)
03.12.2011 07:00 14,6 C 7,8 C 0,0 UV-I 0,0 C 50 % 75 % 0 % 1004,5 hPa 0,0 l/m 13,1 km/h (3 Bft) 0,00 h 0,03 h 16,7 km/h (3 Bft)
03.12.2011 08:00 14,7 C 7,5 C 0,0 UV-I 0,0 C 51 % 80 % 0 % 1003,5 hPa 0,2 l/m 15,0 km/h (3 Bft) 0,00 h 0,93 h 21,5 km/h (4 Bft)
03.12.2011 09:00 14,6 C 7,0 C 0,0 UV-I 0,0 C 53 % 86 % 0 % 1002,5 hPa 1,2 l/m 15,6 km/h (3 Bft) 0,00 h 1,00 h 21,6 km/h (4 Bft)
03.12.2011 10:00 14,6 C 7,2 C 0,0 UV-I 0,0 C 55 % 89 % 0 % 1001,5 hPa 1,4 l/m 14,6 km/h (3 Bft) 0,00 h 1,00 h 24,1 km/h (4 Bft)
03.12.2011 11:00 14,5 C 7,5 C 0,0 UV-I 0,0 C 56 % 90 % 0 % 1000,5 hPa 0,9 l/m 15,3 km/h (3 Bft) 0,00 h 1,00 h 23,4 km/h (4 Bft)
03.12.2011 12:00 14,6 C 8,0 C 0,0 UV-I 0,0 C 57 % 89 % 0 % 1000,3 hPa 0,1 l/m 16,0 km/h (3 Bft) 0,00 h 0,37 h 19,0 km/h (3 Bft)
03.12.2011 13:00 14,7 C 8,4 C 0,0 UV-I 0,0 C 58 % 89 % 0 % 999,9 hPa 0,0 l/m 16,3 km/h (3 Bft) 0,00 h 0,07 h 21,5 km/h (4 Bft)
03.12.2011 14:00 14,7 C 8,7 C 0,0 UV-I 0,0 C 59 % 90 % 0 % 1000,1 hPa 0,9 l/m 12,1 km/h (2 Bft) 0,00 h 0,30 h 14,9 km/h (3 Bft)
03.12.2011 15:00 14,7 C 9,1 C 0,0 UV-I 0,0 C 60 % 91 % 0 % 999,8 hPa 0,0 l/m 8,7 km/h (2 Bft) 0,00 h 0,00 h 11,6 km/h (2 Bft)
03.12.2011 16:00 14,8 C 9,7 C 0,0 UV-I 0,0 C 61 % 90 % 0 % 1000,0 hPa 0,0 l/m 8,6 km/h (2 Bft) 0,00 h 0,00 h 9,6 km/h (2 Bft)
03.12.2011 17:00 14,9 C 9,8 C 0,0 UV-I 0,0 C 61 % 90 % 0 % 1000,9 hPa 0,1 l/m 6,3 km/h (2 Bft) 0,00 h 0,27 h 9,0 km/h (2 Bft)
03.12.2011 18:00 15,0 C 9,1 C 0,0 UV-I 0,0 C 61 % 89 % 0 % 1001,7 hPa 0,0 l/m 4,4 km/h (1 Bft) 0,00 h 0,00 h 6,7 km/h (2 Bft)
03.12.2011 19:00 15,0 C 8,6 C 0,0 UV-I 0,0 C 60 % 89 % 0 % 1002,4 hPa 0,0 l/m 3,1 km/h (1 Bft) 0,00 h 0,00 h 5,8 km/h (2 Bft)
03.12.2011 20:00 15,0 C 8,8 C 0,0 UV-I 0,0 C 59 % 88 % 0 % 1002,5 hPa 0,0 l/m 4,4 km/h (1 Bft) 0,00 h 0,00 h 6,5 km/h (2 Bft)
03.12.2011 21:00 14,9 C 8,4 C 0,0 UV-I 0,0 C 58 % 86 % 0 % 1002,4 hPa 0,0 l/m 4,3 km/h (1 Bft) 0,00 h 0,00 h 6,8 km/h (2 Bft)
03.12.2011 22:00 14,8 C 8,4 C 0,0 UV-I 0,0 C 57 % 85 % 0 % 1002,5 hPa 0,0 l/m 3,2 km/h (1 Bft) 0,00 h 0,00 h 4,8 km/h (1 Bft)
03.12.2011 23:00 15,0 C 8,6 C 0,0 UV-I 0,0 C 58 % 86 % 0 % 1002,1 hPa 0,0 l/m 3,9 km/h (1 Bft) 0,00 h 0,00 h 6,4 km/h (2 Bft)
04.12.2011 00:00 15,0 C 8,4 C 0,0 UV-I 0,0 C 58 % 87 % 0 % 1001,7 hPa 0,0 l/m 6,8 km/h (2 Bft) 0,00 h 0,00 h 10,8 km/h (2 Bft)
04.12.2011 01:00 14,8 C 8,5 C 0,0 UV-I 0,0 C 57 % 85 % 0 % 1000,9 hPa 0,0 l/m 8,5 km/h (2 Bft) 0,00 h 0,00 h 10,5 km/h (2 Bft)
04.12.2011 02:00 14,9 C 8,8 C 0,0 UV-I 0,0 C 57 % 83 % 0 % 1000,6 hPa 0,0 l/m 6,1 km/h (2 Bft) 0,00 h 0,00 h 9,0 km/h (2 Bft)
04.12.2011 03:00 15,0 C 9,2 C 0,0 UV-I 0,0 C 57 % 82 % 0 % 1000,4 hPa 0,0 l/m 11,8 km/h (2 Bft) 0,00 h 0,00 h 15,4 km/h (3 Bft)
04.12.2011 04:00 15,0 C 9,3 C 0,0 UV-I 0,0 C 57 % 83 % 0 % 999,9 hPa 0,0 l/m 10,5 km/h (2 Bft) 0,00 h 0,00 h 13,8 km/h (3 Bft)
04.12.2011 05:00 15,0 C 9,2 C 0,0 UV-I 0,0 C 57 % 84 % 0 % 999,5 hPa 0,0 l/m 9,5 km/h (2 Bft) 0,00 h 0,00 h 12,0 km/h (2 Bft)
04.12.2011 06:00 15,0 C 9,1 C 0,0 UV-I 0,0 C 57 % 84 % 0 % 999,2 hPa 0,0 l/m 6,7 km/h (2 Bft) 0,00 h 0,00 h 9,3 km/h (2 Bft)
04.12.2011 07:00 15,1 C 8,9 C 0,0 UV-I 0,0 C 57 % 84 % 0 % 999,3 hPa 0,0 l/m 6,1 km/h (2 Bft) 0,00 h 0,00 h 8,5 km/h (2 Bft)
04.12.2011 08:00 15,1 C 8,8 C 0,0 UV-I 0,0 C 57 % 84 % 0 % 999,5 hPa 0,0 l/m 6,5 km/h (2 Bft) 0,00 h 0,00 h 8,9 km/h (2 Bft)
04.12.2011 09:00 15,1 C 8,7 C 0,0 UV-I 0,0 C 56 % 83 % 0 % 999,9 hPa 0,0 l/m 7,6 km/h (2 Bft) 0,00 h 0,00 h 9,4 km/h (2 Bft)
04.12.2011 10:00 15,1 C 8,7 C 0,0 UV-I 0,0 C 57 % 85 % 0 % 1000,2 hPa 0,0 l/m 9,1 km/h (2 Bft) 0,00 h 0,27 h 11,2 km/h (2 Bft)
04.12.2011 11:00 15,2 C 8,8 C 0,0 UV-I 0,0 C 57 % 85 % 0 % 1000,1 hPa 0,0 l/m 8,3 km/h (2 Bft) 0,00 h 0,00 h 10,3 km/h (2 Bft)
04.12.2011 12:00 15,1 C 9,0 C 0,0 UV-I 0,0 C 57 % 84 % 0 % 999,5 hPa 0,0 l/m 8,7 km/h (2 Bft) 0,00 h 0,00 h 12,1 km/h (2 Bft)
04.12.2011 13:00 15,2 C 9,2 C 0,0 UV-I 0,0 C 55 % 80 % 0 % 999,3 hPa 0,0 l/m 10,8 km/h (2 Bft) 0,00 h 0,00 h 14,3 km/h (3 Bft)
04.12.2011 14:00 15,2 C 9,2 C 0,0 UV-I 0,0 C 54 % 78 % 0 % 998,4 hPa 0,0 l/m 7,5 km/h (2 Bft) 0,00 h 0,00 h 9,0 km/h (2 Bft)
04.12.2011 15:00 15,2 C 9,2 C 0,0 UV-I 0,0 C 54 % 79 % 0 % 998,0 hPa 0,0 l/m 6,7 km/h (2 Bft) 0,00 h 0,00 h 8,8 km/h (2 Bft)
04.12.2011 16:00 15,1 C 9,1 C 0,0 UV-I 0,0 C 54 % 80 % 0 % 997,5 hPa 0,0 l/m 5,3 km/h (1 Bft) 0,00 h 0,00 h 7,7 km/h (2 Bft)
04.12.2011 17:00 15,1 C 8,9 C 0,0 UV-I 0,0 C 54 % 80 % 0 % 996,6 hPa 0,0 l/m 4,9 km/h (1 Bft) 0,00 h 0,00 h 7,0 km/h (2 Bft)
04.12.2011 18:00 15,2 C 8,8 C 0,0 UV-I 0,0 C 54 % 80 % 0 % 995,4 hPa 0,0 l/m 6,1 km/h (2 Bft) 0,00 h 0,00 h 8,7 km/h (2 Bft)
04.12.2011 19:00 15,2 C 8,7 C 0,0 UV-I 0,0 C 55 % 81 % 0 % 994,3 hPa 0,0 l/m 2,7 km/h (1 Bft) 0,00 h 0,03 h 4,9 km/h (1 Bft)
04.12.2011 20:00 15,1 C 8,4 C 0,0 UV-I 0,0 C 55 % 84 % 0 % 993,4 hPa 0,1 l/m 1,8 km/h (1 Bft) 0,00 h 0,40 h 4,7 km/h (1 Bft)
04.12.2011 21:00 15,3 C 8,4 C 0,0 UV-I 0,0 C 56 % 84 % 0 % 992,4 hPa 0,1 l/m 4,8 km/h (1 Bft) 0,00 h 0,40 h 6,7 km/h (2 Bft)
04.12.2011 22:00 15,1 C 8,2 C 0,0 UV-I 0,0 C 54 % 82 % 0 % 991,5 hPa 0,0 l/m 5,1 km/h (1 Bft) 0,00 h 0,00 h 6,8 km/h (2 Bft)
04.12.2011 23:00 15,1 C 7,8 C 0,0 UV-I 0,0 C 54 % 83 % 0 % 991,2 hPa 0,0 l/m 4,0 km/h (1 Bft) 0,00 h 0,00 h 5,8 km/h (1 Bft)
Min-Datum _ 29.11.11 29.11.11 28.11.11 28.11.11 29.11.11 30.11.11 28.11.11 04.12.11 - 28.11.11 - - 28.11.11
_ Min-Zeit 03:48 02:24 00:00 00:00 15:00 13:56 00:00 22:26 - 00:00 - - 00:00
Minimum _ 14,1 C -0,1 C 0,0 UV-I 0,0 C 46 % 70 % 0 % 990,9 hPa - 0,0 km/h (0 Bft) - - 0,0 km/h (0 Bft)
Max-Datum _ 28.11.11 02.12.11 29.11.11 28.11.11 01.12.11 29.11.11 28.11.11 28.11.11 02.12.11 03.12.11 28.11.11 28.11.11 03.12.11
_ Max-Zeit 14:46 04:08 11:54 12:06 23:18 07:06 09:58 10:26 07:18 12:36 09:40 12:06 12:42
Maximum _ 17,6 C 13,3 C 0,6 UV-I 6,3 C 63 % 96 % 100 % 1027,6 hPa 2,5 l/m 18,1 km/h
N-NO (3 Bft)
0,03 h 0,03 h 52,8 km/h
N-NO (7 Bft)
Durchschnitt _ 15,3 C 7,5 C 0,0 UV-I 0,4 C 54 % 86 % 9 % 1012,3 hPa #15,0 l/m 5,9 km/h (2 Bft) #14:16 h #16:38 h 7,4 km/h (2 Bft)
© 2012 W. Hausmann